Nearby METAR Reports

This page may be slow to load as it queries the National Weather Service for data.

KBIS - Bismarck, North Dakota, USA
Distance from station: S 10mi, 15km
Updated: Thu, 09-Dec-2021 12:52am CST
Overcast
Overcast
 Wind from E
Wind: E 3 mph , 6 km/h
Temperature: 28°F , -2°C
Dew Point: 27°F , -3°C
Humidity: 93%
Barometer: 29.35 inHg , 993.9 hPa
Clouds: Overcast
Visibility: 10 miles , 16 km
Cloud details: Overcast 9000 ft
2021/12/09 06:52 KBIS 090652Z AUTO 10003KT 10SM OVC090 M02/M03 A2935 RMK AO2 SLP958 T10171033
KDIK - Dickinson, North Dakota, USA
Distance from station: W 95mi, 154km
Updated: Thu, 09-Dec-2021 12:56am CST
Overcast
Overcast
 Wind from W
Wind: W 16 mph , 26 km/h, Gust: 30 mph , 48 km/h
Temperature: 39°F , 4°C
Wind Chill: 30°F , -1°C
Dew Point: 30°F , -1°C
Humidity: 70%
Barometer: 29.35 inHg , 993.9 hPa
Clouds: Overcast
Cloud details: Mostly cloudy 4500 ft
Mostly cloudy 6000 ft
Overcast 8500 ft
2021/12/09 06:56 KDIK 090656Z AUTO 27014G26KT BKN045 BKN060 OVC085 04/M01 A2935 RMK AO2 PK WND 27026/0649 RAB38E54 SLP953 P0000 T00441011 400611128 $
 
KXWA - Williston, North Dakota, USA
Distance from station: NNW 2mi, 2km
Updated: Thu, 09-Dec-2021 12:51am CST
Clear
Clear
 Wind from NW
Wind: NW 20 mph , 31 km/h
Temperature: 30°F , -1°C
Wind Chill: 17°F , -8°C
Dew Point: 25°F , -4°C
Humidity: 80%
Barometer: 29.33 inHg , 993.2 hPa
Clouds: Clear
Visibility: 10 miles , 16 km
2021/12/09 06:51 KXWA 090651Z AUTO 31017KT 10SM CLR M01/M04 A2933 RMK AO2 SLP965 T10061044
KFAR - Fargo, North Dakota, USA
Distance from station: NNW 4mi, 7km
Updated: Thu, 09-Dec-2021 12:53am CST
Clear
Clear
 Wind from SSE
Wind: SSE 20 mph , 31 km/h, Gust: 31 mph , 50 km/h
Temperature: 25°F , -4°C
Wind Chill: 11°F , -12°C
Dew Point: 16°F , -9°C
Humidity: 69%
Barometer: 29.46 inHg , 997.6 hPa
Clouds: Clear
Visibility: 10 miles , 16 km
2021/12/09 06:53 KFAR 090653Z AUTO 15017G27KT 10SM CLR M04/M09 A2946 RMK AO2 PK WND 16031/0626 SLP992 T10391089
 
KGFK - Grand Forks, North Dakota, USA
Distance from station: NNW 76mi, 123km
Updated: Thu, 09-Dec-2021 12:53am CST
Overcast
Overcast
 Wind from S
Wind: S 22 mph , 35 km/h
Temperature: 21°F , -6°C
Wind Chill: 5°F , -15°C
Dew Point: 16°F , -9°C
Humidity: 80%
Barometer: 29.43 inHg , 996.6 hPa
Clouds: Overcast
Visibility: 10 miles , 16 km
Cloud details: Overcast 12000 ft
2021/12/09 06:53 KGFK 090653Z AUTO 17019KT 10SM OVC120 M06/M09 A2943 RMK AO2 PK WND 18029/0619 SLP984 T10561089
KMOT - Minot, North Dakota, USA
Distance from station: E 109mi, 175km
Updated: Thu, 09-Dec-2021 12:54am CST
Mostly cloudy
Mostly cloudy
 Wind from SW
Wind: SW 14 mph , 22 km/h
Temperature: 37°F , 3°C
Wind Chill: 28°F , -2°C
Dew Point: 28°F , -2°C
Humidity: 70%
Barometer: 29.27 inHg , 991.2 hPa
Clouds: Mostly cloudy
Visibility: 10 miles , 16 km
Cloud details: Mostly cloudy 10000 ft
2021/12/09 06:54 KMOT 090654Z AUTO 23012KT 10SM BKN100 03/M02 A2927 RMK AO2 SLP931 T00331017